createdAt,value
2022-08-14T00:01:37.149Z,20.40
2022-08-14T00:07:48.416Z,18.90
2022-08-14T00:13:35.724Z,18.90
2022-08-14T00:19:06.217Z,21.70
2022-08-14T00:25:01.683Z,18.20
2022-08-14T00:30:17.418Z,18.30
2022-08-14T00:36:34.318Z,18.60
2022-08-14T00:41:16.696Z,17.70
2022-08-14T00:46:50.485Z,20.00
2022-08-14T00:52:53.552Z,19.10
2022-08-14T00:58:58.268Z,20.20
2022-08-14T01:05:26.875Z,21.50
2022-08-14T01:11:19.044Z,19.40
2022-08-14T01:17:45.855Z,22.30
2022-08-14T01:23:19.081Z,20.00
2022-08-14T01:29:59.440Z,20.20
2022-08-14T01:36:21.188Z,19.50
2022-08-14T01:42:09.412Z,20.10
2022-08-14T01:48:13.487Z,18.00
2022-08-14T01:53:56.271Z,18.60
2022-08-14T01:59:58.168Z,21.70
2022-08-14T02:06:39.272Z,22.80
2022-08-14T02:13:32.393Z,17.60
2022-08-14T02:25:54.747Z,21.30
2022-08-14T02:32:36.394Z,18.60
2022-08-14T02:38:49.888Z,20.50
2022-08-14T02:44:30.150Z,22.50
2022-08-14T02:51:03.096Z,19.70
2022-08-14T02:57:39.000Z,20.90
2022-08-14T03:04:00.626Z,15.60
2022-08-14T03:10:27.571Z,16.30
2022-08-14T03:16:45.452Z,18.40
2022-08-14T03:23:39.995Z,19.60
2022-08-14T03:30:14.443Z,17.30
2022-08-14T03:42:44.186Z,15.60
2022-08-14T03:48:26.739Z,17.00
2022-08-14T03:54:27.561Z,15.80
2022-08-14T04:00:43.133Z,17.50
2022-08-14T04:06:21.095Z,14.70
2022-08-14T04:12:27.225Z,16.60
2022-08-14T04:18:33.894Z,17.20
2022-08-14T04:24:14.474Z,15.20
2022-08-14T04:29:47.204Z,15.20
2022-08-14T04:41:08.961Z,17.80
2022-08-14T04:47:25.464Z,15.40
2022-08-14T04:53:04.188Z,16.90
2022-08-14T04:59:13.269Z,17.70
2022-08-14T05:04:45.137Z,17.90
2022-08-14T05:10:44.135Z,26.60
2022-08-14T05:16:31.295Z,19.90
2022-08-14T05:21:57.726Z,21.10
2022-08-14T05:27:31.235Z,17.10
2022-08-14T05:33:56.760Z,22.70
2022-08-14T05:39:25.748Z,23.80
2022-08-14T05:45:14.812Z,24.40
2022-08-14T05:50:38.259Z,22.30
2022-08-14T05:56:38.799Z,27.10
2022-08-14T06:02:17.931Z,28.50
2022-08-14T06:08:31.018Z,28.50
2022-08-14T06:13:53.372Z,39.50
2022-08-14T06:19:12.035Z,40.90
2022-08-14T06:24:56.403Z,47.80
2022-08-14T06:31:19.653Z,41.40
2022-08-14T06:37:02.936Z,40.60
2022-08-14T06:42:42.470Z,37.20
2022-08-14T06:48:45.989Z,49.80
2022-08-14T06:55:03.134Z,34.80
2022-08-14T07:01:17.614Z,37.70
2022-08-14T07:07:35.863Z,49.70
2022-08-14T07:14:18.810Z,36.80
2022-08-14T07:19:23.894Z,32.20
2022-08-14T07:25:40.317Z,26.30
2022-08-14T07:31:20.460Z,29.50
2022-08-14T07:36:58.071Z,29.50
2022-08-14T07:42:20.055Z,31.40
2022-08-14T07:48:00.616Z,31.10
2022-08-14T07:53:24.099Z,22.20
2022-08-14T07:58:51.666Z,28.50
2022-08-14T08:04:16.630Z,20.80
2022-08-14T08:09:47.434Z,19.20
2022-08-14T08:15:17.173Z,28.10
2022-08-14T08:21:07.430Z,26.30
2022-08-14T08:26:29.398Z,30.30
2022-08-14T08:31:55.322Z,44.50
2022-08-14T08:37:07.102Z,36.60
2022-08-14T08:42:52.100Z,35.40
2022-08-14T08:47:56.680Z,37.60
2022-08-14T08:53:12.283Z,31.70
2022-08-14T08:58:27.033Z,28.00
2022-08-14T09:04:04.000Z,29.90
2022-08-14T09:10:13.485Z,40.40
2022-08-14T09:15:24.191Z,31.50
2022-08-14T09:20:54.734Z,30.10
2022-08-14T09:26:21.325Z,25.00
2022-08-14T09:31:55.928Z,24.90
2022-08-14T09:37:56.239Z,25.70
2022-08-14T09:43:48.911Z,26.30
2022-08-14T09:49:30.174Z,26.40
2022-08-14T09:54:58.566Z,21.60
2022-08-14T10:00:46.980Z,94.30
2022-08-14T10:06:19.258Z,42.90
2022-08-14T10:11:51.560Z,25.10
2022-08-14T10:17:08.347Z,15.90
2022-08-14T10:23:14.811Z,8.70
2022-08-14T10:28:01.504Z,12.70
2022-08-14T10:33:08.815Z,10.80
2022-08-14T10:38:13.740Z,18.10
2022-08-14T10:44:52.494Z,14.10
2022-08-14T10:50:15.349Z,9.30
2022-08-14T10:55:46.078Z,9.80
2022-08-14T11:01:08.336Z,55.20
2022-08-14T11:06:20.008Z,15.60
2022-08-14T11:11:48.150Z,9.10
2022-08-14T11:17:06.836Z,8.70
2022-08-14T11:22:52.932Z,6.60
2022-08-14T11:28:47.259Z,8.70
2022-08-14T11:33:49.905Z,7.40
2022-08-14T11:39:15.468Z,8.00
2022-08-14T11:44:45.573Z,8.10
2022-08-14T11:49:58.795Z,8.70
2022-08-14T11:55:01.730Z,7.50
2022-08-14T12:00:19.504Z,8.20
2022-08-14T12:05:47.289Z,8.80
2022-08-14T12:11:14.728Z,8.20
2022-08-14T12:16:54.532Z,9.50
2022-08-14T12:22:29.686Z,9.90
2022-08-14T12:27:41.641Z,8.10
2022-08-14T12:32:52.283Z,7.50
2022-08-14T12:38:14.836Z,9.90
2022-08-14T12:43:22.156Z,9.10
2022-08-14T12:48:32.336Z,7.20
2022-08-14T12:53:38.336Z,7.50
2022-08-14T12:58:52.270Z,7.60
2022-08-14T13:04:16.812Z,7.10
2022-08-14T13:09:36.612Z,8.50
2022-08-14T13:14:48.203Z,8.50
2022-08-14T13:19:57.543Z,9.50
2022-08-14T13:25:00.626Z,7.20
2022-08-14T13:30:21.317Z,7.20
2022-08-14T13:35:53.536Z,7.60
2022-08-14T13:41:04.083Z,11.40
2022-08-14T13:46:07.571Z,7.70
2022-08-14T13:51:16.686Z,8.80
2022-08-14T13:56:36.582Z,9.10
2022-08-14T14:01:45.975Z,7.90
2022-08-14T14:07:01.747Z,20.90
2022-08-14T14:12:36.601Z,8.80
2022-08-14T14:17:48.854Z,9.90
2022-08-14T14:23:02.370Z,8.90
2022-08-14T14:28:12.140Z,8.50
2022-08-14T14:33:44.415Z,8.30
2022-08-14T14:38:52.552Z,8.70
2022-08-14T14:44:03.765Z,8.60
2022-08-14T14:49:11.428Z,7.10
2022-08-14T14:54:48.928Z,10.70
2022-08-14T14:59:55.999Z,9.50
2022-08-14T15:05:19.684Z,9.70
2022-08-14T15:10:27.929Z,9.20
2022-08-14T15:15:47.677Z,9.50
2022-08-14T15:20:55.177Z,9.10
2022-08-14T15:26:00.224Z,8.20
2022-08-14T15:31:05.743Z,9.00
2022-08-14T15:36:25.550Z,8.20
2022-08-14T15:41:33.730Z,9.00
2022-08-14T15:46:45.660Z,10.90
2022-08-14T15:51:47.906Z,7.60
2022-08-14T15:57:06.274Z,8.40
2022-08-14T16:02:10.747Z,9.70
2022-08-14T16:07:14.802Z,10.10
2022-08-14T16:12:17.162Z,10.70
2022-08-14T16:17:21.677Z,11.00
2022-08-14T16:22:57.332Z,9.70
2022-08-14T16:28:07.257Z,8.00
2022-08-14T16:33:59.098Z,8.40
2022-08-14T16:39:00.078Z,10.30
2022-08-14T16:44:13.817Z,9.50
2022-08-14T16:50:03.103Z,12.30
2022-08-14T16:55:02.680Z,8.10
2022-08-14T17:00:28.339Z,6.30
2022-08-14T17:05:38.204Z,7.60
2022-08-14T17:11:10.682Z,6.50
2022-08-14T17:16:25.095Z,6.80
2022-08-14T17:21:55.728Z,7.40
2022-08-14T17:27:04.328Z,6.50
2022-08-14T17:32:28.168Z,7.90
2022-08-14T17:37:56.016Z,7.30
2022-08-14T17:43:19.910Z,6.30
2022-08-14T17:49:14.998Z,7.70
2022-08-14T17:54:35.044Z,10.00
2022-08-14T18:00:12.735Z,10.60
2022-08-14T18:06:08.968Z,10.30
2022-08-14T18:11:49.020Z,8.90
2022-08-14T18:17:16.085Z,10.50
2022-08-14T18:22:39.418Z,8.30
2022-08-14T18:28:18.396Z,8.60
2022-08-14T18:34:31.653Z,9.20
2022-08-14T18:40:21.406Z,8.20
2022-08-14T18:47:00.031Z,7.30
2022-08-14T18:52:33.723Z,6.90
2022-08-14T18:58:48.083Z,7.70
2022-08-14T19:04:36.938Z,7.60
2022-08-14T19:10:56.199Z,8.90
2022-08-14T19:16:54.444Z,7.90
2022-08-14T19:22:29.815Z,8.40
2022-08-14T19:28:35.627Z,10.00
2022-08-14T19:33:56.973Z,8.90
2022-08-14T19:39:11.015Z,8.50
2022-08-14T19:44:19.619Z,9.40
2022-08-14T19:50:08.602Z,9.20
2022-08-14T19:55:34.348Z,7.40
2022-08-14T20:00:54.891Z,8.90
2022-08-14T20:06:08.912Z,7.10
2022-08-14T20:11:58.572Z,8.80
2022-08-14T20:22:38.930Z,8.20
2022-08-14T20:28:29.680Z,9.00
2022-08-14T20:33:53.267Z,8.40
2022-08-14T20:39:18.566Z,10.80
2022-08-14T20:45:13.236Z,10.50
2022-08-14T20:50:57.261Z,14.40
2022-08-14T20:56:37.108Z,8.70
2022-08-14T21:02:50.079Z,9.60
2022-08-14T21:08:36.927Z,10.00
2022-08-14T21:14:25.193Z,10.10
2022-08-14T21:26:52.232Z,11.40
2022-08-14T21:32:50.484Z,12.70
2022-08-14T21:38:34.115Z,13.40
2022-08-14T21:44:17.717Z,13.20
2022-08-14T21:50:04.107Z,15.40
2022-08-14T21:55:32.374Z,13.00
2022-08-14T22:00:49.659Z,15.50
2022-08-14T22:06:22.091Z,13.90
2022-08-14T22:11:49.404Z,15.10
2022-08-14T22:17:32.311Z,11.70
2022-08-14T22:23:12.760Z,16.40
2022-08-14T22:28:58.939Z,14.20
2022-08-14T22:34:18.190Z,14.00
2022-08-14T22:40:17.162Z,17.70
2022-08-14T22:45:55.724Z,18.80
2022-08-14T22:51:16.111Z,19.60
2022-08-14T22:57:37.107Z,15.40
2022-08-14T23:03:46.298Z,14.80
2022-08-14T23:09:57.909Z,16.60
2022-08-14T23:15:42.776Z,16.50
2022-08-14T23:21:28.708Z,17.50
2022-08-14T23:28:03.335Z,17.20
2022-08-14T23:33:56.023Z,20.10
2022-08-14T23:39:42.896Z,21.10
2022-08-14T23:45:36.924Z,17.80
2022-08-14T23:51:11.223Z,18.50
2022-08-14T23:57:14.938Z,19.40
